Lubbock, TX

8:45 PM CST on February 09, 2016 (GMT -0600)
Lubbock International | | Change Station
CLOSE
Current Station
Airport
Location: Lubbock,
Elevation: 3241 ft
Nearby Weather Stations

Elev 3241 ft 33.67 °N, 101.82 °W | Updated 52 minutes ago

Clear
Clear
47 °F
Feels Like 47 °F
N
9
Wind Variable Wind from NNE

Today
High -- | Low -- °F
--% Chance of Precip.
Yesterday
High -- | Low -- °F
Precip. -- in
Pressure 30.31 in
Visibility 10.0 miles
Clouds Clear
Dew Point 18 °F
Humidity 32%
Rainfall 0.00 in
Snow Depth Not available.
7:37 AM 6:25 PM
Waxing Crescent, 3% visible
METAR KLBB 100153Z 02008KT 10SM CLR 08/M08 A3031 RMK AO2 SLP264 T00831078
Pressure 30.31 in
Visibility 10.0 miles
Clouds Clear
Dew Point 18 °F
Humidity 32%
Rainfall 0.00 in
Snow Depth Not available.
7:37 AM 6:25 PM
Waxing Crescent, 3% visible
METAR KLBB 100153Z 02008KT 10SM CLR 08/M08 A3031 RMK AO2 SLP264 T00831078

10-Day Weather Forecast

Almanac

Astronomy

Feb. 09, 2016 Rise Set
Actual Time
Civil Twilight
Nautical Twilight
Astronomical Twilight
Moon
Length of Visible Light
Length of Day
Tomorrow will be .
, % of the Moon is Illuminated

Today's Extremes

State Highs State Lows

Community

WunderPhotos

Upload Photos

1,891,786 photos uploaded!

WunderBlog® & News

Nearby

Air Quality

  Air Quality AQ Index Pollutant
Not available.

Snow Depth

Station Depth Elevation

Earthquake Activity

City Distance Mag. Time & Date
Minimum magnitude displayed is 2.5.

Coastal Water Temperatures

Place Temperature

Stations

Nearby Weather Stations

Station Location Temp. Windchill Dew Point Humidity Wind Precip. Elev Updated Type
                   

Watches & Warnings

There are currently no watches in effect.